sensor_id;sensor_type;location;lat;lon;timestamp;P1;durP1;ratioP1;P2;durP2;ratioP2
15655;SDS011;7928;43.614;1.456;2023-12-20T00:00:22;16.30;;;13.53;;
15655;SDS011;7928;43.614;1.456;2023-12-20T00:02:49;21.03;;;14.40;;
15655;SDS011;7928;43.614;1.456;2023-12-20T00:05:16;18.60;;;13.40;;
15655;SDS011;7928;43.614;1.456;2023-12-20T00:07:43;16.40;;;13.80;;
15655;SDS011;7928;43.614;1.456;2023-12-20T00:10:10;17.60;;;14.27;;
15655;SDS011;7928;43.614;1.456;2023-12-20T00:12:38;18.30;;;14.07;;
15655;SDS011;7928;43.614;1.456;2023-12-20T00:15:06;16.40;;;13.20;;
15655;SDS011;7928;43.614;1.456;2023-12-20T00:17:35;15.60;;;12.90;;
15655;SDS011;7928;43.614;1.456;2023-12-20T00:20:02;16.80;;;13.07;;
15655;SDS011;7928;43.614;1.456;2023-12-20T00:22:30;18.27;;;13.63;;
15655;SDS011;7928;43.614;1.456;2023-12-20T00:24:57;15.93;;;13.00;;
15655;SDS011;7928;43.614;1.456;2023-12-20T00:27:24;17.43;;;13.63;;
15655;SDS011;7928;43.614;1.456;2023-12-20T00:29:51;13.53;;;12.07;;
15655;SDS011;7928;43.614;1.456;2023-12-20T00:32:18;16.30;;;13.90;;
15655;SDS011;7928;43.614;1.456;2023-12-20T00:34:46;16.93;;;12.70;;
15655;SDS011;7928;43.614;1.456;2023-12-20T00:37:13;15.40;;;13.43;;
15655;SDS011;7928;43.614;1.456;2023-12-20T00:39:41;16.00;;;14.33;;
15655;SDS011;7928;43.614;1.456;2023-12-20T00:42:09;14.67;;;13.17;;
15655;SDS011;7928;43.614;1.456;2023-12-20T00:44:35;21.40;;;13.23;;
15655;SDS011;7928;43.614;1.456;2023-12-20T00:47:03;18.40;;;14.07;;
15655;SDS011;7928;43.614;1.456;2023-12-20T00:49:30;17.97;;;14.47;;
15655;SDS011;7928;43.614;1.456;2023-12-20T00:51:58;19.93;;;14.90;;
15655;SDS011;7928;43.614;1.456;2023-12-20T00:54:25;16.20;;;14.50;;
15655;SDS011;7928;43.614;1.456;2023-12-20T00:56:52;16.10;;;13.90;;
15655;SDS011;7928;43.614;1.456;2023-12-20T00:59:19;17.20;;;14.63;;
15655;SDS011;7928;43.614;1.456;2023-12-20T01:01:46;16.93;;;14.00;;
15655;SDS011;7928;43.614;1.456;2023-12-20T01:04:13;16.03;;;13.97;;
15655;SDS011;7928;43.614;1.456;2023-12-20T01:06:39;16.67;;;13.03;;
15655;SDS011;7928;43.614;1.456;2023-12-20T01:09:08;18.17;;;13.77;;
15655;SDS011;7928;43.614;1.456;2023-12-20T01:11:35;17.00;;;14.27;;
15655;SDS011;7928;43.614;1.456;2023-12-20T01:14:02;16.93;;;14.20;;
15655;SDS011;7928;43.614;1.456;2023-12-20T01:16:28;15.53;;;13.97;;
15655;SDS011;7928;43.614;1.456;2023-12-20T01:18:55;15.63;;;14.07;;
15655;SDS011;7928;43.614;1.456;2023-12-20T01:21:22;15.57;;;13.93;;
15655;SDS011;7928;43.614;1.456;2023-12-20T01:23:49;15.50;;;13.90;;
15655;SDS011;7928;43.614;1.456;2023-12-20T01:26:18;17.27;;;15.47;;
15655;SDS011;7928;43.614;1.456;2023-12-20T01:28:45;17.20;;;13.07;;
15655;SDS011;7928;43.614;1.456;2023-12-20T01:31:11;15.07;;;13.43;;
15655;SDS011;7928;43.614;1.456;2023-12-20T01:33:38;18.60;;;14.30;;
15655;SDS011;7928;43.614;1.456;2023-12-20T01:36:05;16.33;;;14.60;;
15655;SDS011;7928;43.614;1.456;2023-12-20T01:38:33;15.40;;;13.50;;
15655;SDS011;7928;43.614;1.456;2023-12-20T01:40:59;15.60;;;14.00;;
15655;SDS011;7928;43.614;1.456;2023-12-20T01:43:28;17.67;;;13.63;;
15655;SDS011;7928;43.614;1.456;2023-12-20T01:45:56;15.47;;;13.87;;
15655;SDS011;7928;43.614;1.456;2023-12-20T01:48:23;14.10;;;12.53;;
15655;SDS011;7928;43.614;1.456;2023-12-20T01:50:51;15.50;;;13.77;;
15655;SDS011;7928;43.614;1.456;2023-12-20T01:53:19;15.87;;;12.87;;
15655;SDS011;7928;43.614;1.456;2023-12-20T01:55:48;15.70;;;14.03;;
15655;SDS011;7928;43.614;1.456;2023-12-20T01:58:16;17.07;;;14.07;;
15655;SDS011;7928;43.614;1.456;2023-12-20T02:00:46;14.90;;;13.37;;
15655;SDS011;7928;43.614;1.456;2023-12-20T02:03:13;16.57;;;13.87;;
15655;SDS011;7928;43.614;1.456;2023-12-20T02:05:41;18.10;;;13.47;;
15655;SDS011;7928;43.614;1.456;2023-12-20T02:08:07;19.70;;;13.47;;
15655;SDS011;7928;43.614;1.456;2023-12-20T02:10:34;15.10;;;13.50;;
15655;SDS011;7928;43.614;1.456;2023-12-20T02:13:01;15.70;;;14.00;;
15655;SDS011;7928;43.614;1.456;2023-12-20T02:15:29;15.20;;;13.57;;
15655;SDS011;7928;43.614;1.456;2023-12-20T02:17:57;14.17;;;12.63;;
15655;SDS011;7928;43.614;1.456;2023-12-20T02:20:25;13.93;;;12.37;;
15655;SDS011;7928;43.614;1.456;2023-12-20T02:22:53;15.90;;;14.20;;
15655;SDS011;7928;43.614;1.456;2023-12-20T02:25:20;17.37;;;14.23;;
15655;SDS011;7928;43.614;1.456;2023-12-20T02:27:47;17.20;;;14.23;;
15655;SDS011;7928;43.614;1.456;2023-12-20T02:30:15;15.50;;;13.90;;
15655;SDS011;7928;43.614;1.456;2023-12-20T02:32:42;15.00;;;13.40;;
15655;SDS011;7928;43.614;1.456;2023-12-20T02:35:09;14.60;;;13.10;;
15655;SDS011;7928;43.614;1.456;2023-12-20T02:37:35;14.73;;;12.70;;
15655;SDS011;7928;43.614;1.456;2023-12-20T02:40:04;15.23;;;12.43;;
15655;SDS011;7928;43.614;1.456;2023-12-20T02:42:33;13.77;;;12.37;;
15655;SDS011;7928;43.614;1.456;2023-12-20T02:45:00;13.90;;;12.47;;
15655;SDS011;7928;43.614;1.456;2023-12-20T02:47:27;13.80;;;12.30;;
15655;SDS011;7928;43.614;1.456;2023-12-20T02:49:54;13.07;;;11.63;;
15655;SDS011;7928;43.614;1.456;2023-12-20T02:52:22;13.53;;;11.30;;
15655;SDS011;7928;43.614;1.456;2023-12-20T02:54:49;15.30;;;12.07;;
15655;SDS011;7928;43.614;1.456;2023-12-20T02:57:17;11.87;;;10.63;;
15655;SDS011;7928;43.614;1.456;2023-12-20T02:59:44;11.73;;;10.57;;
15655;SDS011;7928;43.614;1.456;2023-12-20T03:02:11;10.63;;;9.53;;
15655;SDS011;7928;43.614;1.456;2023-12-20T03:04:38;11.80;;;10.03;;
15655;SDS011;7928;43.614;1.456;2023-12-20T03:07:05;12.83;;;11.40;;
15655;SDS011;7928;43.614;1.456;2023-12-20T03:09:32;16.10;;;10.80;;
15655;SDS011;7928;43.614;1.456;2023-12-20T03:11:59;13.80;;;9.90;;
15655;SDS011;7928;43.614;1.456;2023-12-20T03:14:27;12.83;;;11.17;;
15655;SDS011;7928;43.614;1.456;2023-12-20T03:16:54;11.67;;;10.43;;
15655;SDS011;7928;43.614;1.456;2023-12-20T03:19:21;13.23;;;11.80;;
15655;SDS011;7928;43.614;1.456;2023-12-20T03:21:48;12.40;;;11.20;;
15655;SDS011;7928;43.614;1.456;2023-12-20T03:24:15;16.93;;;12.17;;
15655;SDS011;7928;43.614;1.456;2023-12-20T03:26:42;14.40;;;12.33;;
15655;SDS011;7928;43.614;1.456;2023-12-20T03:29:09;14.57;;;12.00;;
15655;SDS011;7928;43.614;1.456;2023-12-20T03:31:37;15.03;;;13.53;;
15655;SDS011;7928;43.614;1.456;2023-12-20T03:34:04;17.60;;;13.30;;
15655;SDS011;7928;43.614;1.456;2023-12-20T03:36:31;15.30;;;13.80;;
15655;SDS011;7928;43.614;1.456;2023-12-20T03:38:58;15.73;;;13.33;;
15655;SDS011;7928;43.614;1.456;2023-12-20T03:41:25;15.20;;;13.47;;
15655;SDS011;7928;43.614;1.456;2023-12-20T03:43:52;15.30;;;13.80;;
15655;SDS011;7928;43.614;1.456;2023-12-20T03:46:18;15.30;;;13.17;;
15655;SDS011;7928;43.614;1.456;2023-12-20T03:48:47;15.93;;;14.17;;
15655;SDS011;7928;43.614;1.456;2023-12-20T03:51:14;15.70;;;14.20;;
15655;SDS011;7928;43.614;1.456;2023-12-20T03:53:41;16.10;;;14.40;;
15655;SDS011;7928;43.614;1.456;2023-12-20T03:56:08;17.00;;;15.00;;
15655;SDS011;7928;43.614;1.456;2023-12-20T03:58:34;15.93;;;14.23;;
15655;SDS011;7928;43.614;1.456;2023-12-20T04:01:01;15.57;;;13.87;;
15655;SDS011;7928;43.614;1.456;2023-12-20T04:03:28;17.73;;;15.23;;
15655;SDS011;7928;43.614;1.456;2023-12-20T04:05:57;17.43;;;15.63;;
15655;SDS011;7928;43.614;1.456;2023-12-20T04:08:24;15.47;;;14.00;;
15655;SDS011;7928;43.614;1.456;2023-12-20T04:10:51;16.00;;;14.33;;
15655;SDS011;7928;43.614;1.456;2023-12-20T04:13:17;15.77;;;14.17;;
15655;SDS011;7928;43.614;1.456;2023-12-20T04:15:44;14.67;;;13.17;;
15655;SDS011;7928;43.614;1.456;2023-12-20T04:18:11;15.30;;;13.80;;
15655;SDS011;7928;43.614;1.456;2023-12-20T04:20:39;18.83;;;13.90;;
15655;SDS011;7928;43.614;1.456;2023-12-20T04:23:07;15.73;;;14.13;;
15655;SDS011;7928;43.614;1.456;2023-12-20T04:25:34;15.07;;;13.57;;
15655;SDS011;7928;43.614;1.456;2023-12-20T04:28:01;15.17;;;13.63;;
15655;SDS011;7928;43.614;1.456;2023-12-20T04:30:28;16.30;;;14.10;;
15655;SDS011;7928;43.614;1.456;2023-12-20T04:32:55;15.73;;;13.30;;
15655;SDS011;7928;43.614;1.456;2023-12-20T04:35:22;14.27;;;12.73;;
15655;SDS011;7928;43.614;1.456;2023-12-20T04:37:49;16.40;;;12.90;;
15655;SDS011;7928;43.614;1.456;2023-12-20T04:40:18;13.70;;;12.30;;
15655;SDS011;7928;43.614;1.456;2023-12-20T04:42:45;13.17;;;11.73;;
15655;SDS011;7928;43.614;1.456;2023-12-20T04:45:12;17.10;;;12.50;;
15655;SDS011;7928;43.614;1.456;2023-12-20T04:47:41;12.50;;;11.10;;
15655;SDS011;7928;43.614;1.456;2023-12-20T04:50:08;12.30;;;11.10;;
15655;SDS011;7928;43.614;1.456;2023-12-20T04:52:36;13.57;;;12.23;;
15655;SDS011;7928;43.614;1.456;2023-12-20T04:55:03;13.53;;;10.83;;
15655;SDS011;7928;43.614;1.456;2023-12-20T04:57:32;12.53;;;11.33;;
15655;SDS011;7928;43.614;1.456;2023-12-20T04:59:59;14.30;;;11.73;;
15655;SDS011;7928;43.614;1.456;2023-12-20T05:02:26;12.07;;;10.93;;
15655;SDS011;7928;43.614;1.456;2023-12-20T05:04:53;11.63;;;10.43;;
15655;SDS011;7928;43.614;1.456;2023-12-20T05:07:20;11.13;;;9.77;;
15655;SDS011;7928;43.614;1.456;2023-12-20T05:09:47;10.63;;;9.53;;
15655;SDS011;7928;43.614;1.456;2023-12-20T05:12:14;10.80;;;9.67;;
15655;SDS011;7928;43.614;1.456;2023-12-20T05:14:42;11.30;;;9.27;;
15655;SDS011;7928;43.614;1.456;2023-12-20T05:17:09;9.67;;;8.67;;
15655;SDS011;7928;43.614;1.456;2023-12-20T05:19:36;9.80;;;8.47;;
15655;SDS011;7928;43.614;1.456;2023-12-20T05:22:03;10.00;;;7.97;;
15655;SDS011;7928;43.614;1.456;2023-12-20T05:24:30;8.97;;;7.10;;
15655;SDS011;7928;43.614;1.456;2023-12-20T05:26:57;7.83;;;7.03;;
15655;SDS011;7928;43.614;1.456;2023-12-20T05:29:24;7.43;;;6.63;;
15655;SDS011;7928;43.614;1.456;2023-12-20T05:31:52;7.87;;;7.17;;
15655;SDS011;7928;43.614;1.456;2023-12-20T05:34:20;7.37;;;6.33;;
15655;SDS011;7928;43.614;1.456;2023-12-20T05:36:47;6.67;;;6.07;;
15655;SDS011;7928;43.614;1.456;2023-12-20T05:39:14;6.30;;;5.70;;
15655;SDS011;7928;43.614;1.456;2023-12-20T05:41:40;6.93;;;6.00;;
15655;SDS011;7928;43.614;1.456;2023-12-20T05:44:07;5.47;;;4.87;;
15655;SDS011;7928;43.614;1.456;2023-12-20T05:46:35;6.40;;;5.27;;
15655;SDS011;7928;43.614;1.456;2023-12-20T05:49:03;6.13;;;4.20;;
15655;SDS011;7928;43.614;1.456;2023-12-20T05:51:30;4.93;;;4.47;;
15655;SDS011;7928;43.614;1.456;2023-12-20T05:53:57;5.67;;;4.97;;
15655;SDS011;7928;43.614;1.456;2023-12-20T05:56:24;6.07;;;4.97;;
15655;SDS011;7928;43.614;1.456;2023-12-20T05:58:51;7.47;;;4.77;;
15655;SDS011;7928;43.614;1.456;2023-12-20T06:01:18;5.40;;;4.90;;
15655;SDS011;7928;43.614;1.456;2023-12-20T06:03:45;4.40;;;4.00;;
15655;SDS011;7928;43.614;1.456;2023-12-20T06:06:13;6.80;;;4.67;;
15655;SDS011;7928;43.614;1.456;2023-12-20T06:08:40;4.70;;;4.30;;
15655;SDS011;7928;43.614;1.456;2023-12-20T06:11:08;4.10;;;3.70;;
15655;SDS011;7928;43.614;1.456;2023-12-20T06:13:35;4.33;;;3.53;;
15655;SDS011;7928;43.614;1.456;2023-12-20T06:16:04;6.93;;;3.80;;
15655;SDS011;7928;43.614;1.456;2023-12-20T06:18:32;4.00;;;3.60;;
15655;SDS011;7928;43.614;1.456;2023-12-20T06:20:59;3.93;;;3.53;;
15655;SDS011;7928;43.614;1.456;2023-12-20T06:23:28;6.20;;;4.00;;
15655;SDS011;7928;43.614;1.456;2023-12-20T06:25:55;4.40;;;3.90;;
15655;SDS011;7928;43.614;1.456;2023-12-20T06:28:22;6.57;;;4.10;;
15655;SDS011;7928;43.614;1.456;2023-12-20T06:30:49;4.90;;;3.50;;
15655;SDS011;7928;43.614;1.456;2023-12-20T06:33:17;4.87;;;3.80;;
15655;SDS011;7928;43.614;1.456;2023-12-20T06:35:46;4.47;;;3.70;;
15655;SDS011;7928;43.614;1.456;2023-12-20T06:38:13;4.70;;;3.53;;
15655;SDS011;7928;43.614;1.456;2023-12-20T06:40:41;6.00;;;3.60;;
15655;SDS011;7928;43.614;1.456;2023-12-20T06:43:08;3.93;;;3.60;;
15655;SDS011;7928;43.614;1.456;2023-12-20T06:45:35;3.60;;;2.83;;
15655;SDS011;7928;43.614;1.456;2023-12-20T06:48:03;6.47;;;3.70;;
15655;SDS011;7928;43.614;1.456;2023-12-20T06:50:30;4.63;;;2.83;;
15655;SDS011;7928;43.614;1.456;2023-12-20T06:52:58;3.60;;;3.10;;
15655;SDS011;7928;43.614;1.456;2023-12-20T06:55:25;3.03;;;1.93;;
15655;SDS011;7928;43.614;1.456;2023-12-20T06:57:54;3.53;;;2.10;;
15655;SDS011;7928;43.614;1.456;2023-12-20T07:00:20;3.80;;;1.93;;
15655;SDS011;7928;43.614;1.456;2023-12-20T07:02:47;1.90;;;1.67;;
15655;SDS011;7928;43.614;1.456;2023-12-20T07:05:16;1.60;;;1.50;;
15655;SDS011;7928;43.614;1.456;2023-12-20T07:07:44;1.50;;;1.30;;
15655;SDS011;7928;43.614;1.456;2023-12-20T07:10:11;1.50;;;1.37;;
15655;SDS011;7928;43.614;1.456;2023-12-20T07:12:39;1.90;;;1.67;;
15655;SDS011;7928;43.614;1.456;2023-12-20T07:15:07;4.57;;;1.77;;
15655;SDS011;7928;43.614;1.456;2023-12-20T07:17:35;7.60;;;5.73;;
15655;SDS011;7928;43.614;1.456;2023-12-20T07:20:02;3.23;;;1.77;;
15655;SDS011;7928;43.614;1.456;2023-12-20T07:22:31;2.00;;;1.80;;
15655;SDS011;7928;43.614;1.456;2023-12-20T07:24:58;2.00;;;1.80;;
15655;SDS011;7928;43.614;1.456;2023-12-20T07:27:25;3.07;;;2.10;;
15655;SDS011;7928;43.614;1.456;2023-12-20T07:29:53;2.27;;;1.90;;
15655;SDS011;7928;43.614;1.456;2023-12-20T07:32:21;2.90;;;2.20;;
15655;SDS011;7928;43.614;1.456;2023-12-20T07:34:48;6.37;;;2.10;;
15655;SDS011;7928;43.614;1.456;2023-12-20T07:37:15;2.93;;;2.00;;
15655;SDS011;7928;43.614;1.456;2023-12-20T07:39:42;2.13;;;1.73;;
15655;SDS011;7928;43.614;1.456;2023-12-20T07:42:09;3.67;;;1.73;;
15655;SDS011;7928;43.614;1.456;2023-12-20T07:44:36;3.17;;;2.10;;
15655;SDS011;7928;43.614;1.456;2023-12-20T07:47:03;3.40;;;2.57;;
15655;SDS011;7928;43.614;1.456;2023-12-20T07:49:31;2.67;;;2.10;;
15655;SDS011;7928;43.614;1.456;2023-12-20T07:51:58;4.07;;;2.03;;
15655;SDS011;7928;43.614;1.456;2023-12-20T07:54:25;4.30;;;2.00;;
15655;SDS011;7928;43.614;1.456;2023-12-20T07:56:52;2.60;;;2.10;;
15655;SDS011;7928;43.614;1.456;2023-12-20T07:59:19;2.03;;;1.67;;
15655;SDS011;7928;43.614;1.456;2023-12-20T08:01:46;1.80;;;1.60;;
15655;SDS011;7928;43.614;1.456;2023-12-20T08:04:13;2.03;;;1.80;;
15655;SDS011;7928;43.614;1.456;2023-12-20T08:06:41;1.60;;;1.50;;
15655;SDS011;7928;43.614;1.456;2023-12-20T08:09:08;3.13;;;1.70;;
15655;SDS011;7928;43.614;1.456;2023-12-20T08:11:35;1.87;;;1.67;;
15655;SDS011;7928;43.614;1.456;2023-12-20T08:14:02;2.33;;;1.47;;
15655;SDS011;7928;43.614;1.456;2023-12-20T08:16:29;2.83;;;1.27;;
15655;SDS011;7928;43.614;1.456;2023-12-20T08:18:56;5.80;;;1.17;;
15655;SDS011;7928;43.614;1.456;2023-12-20T08:21:23;2.20;;;1.63;;
15655;SDS011;7928;43.614;1.456;2023-12-20T08:23:52;2.50;;;1.40;;
15655;SDS011;7928;43.614;1.456;2023-12-20T08:26:19;2.17;;;1.43;;
15655;SDS011;7928;43.614;1.456;2023-12-20T08:28:47;1.47;;;1.13;;
15655;SDS011;7928;43.614;1.456;2023-12-20T08:31:14;3.07;;;1.63;;
15655;SDS011;7928;43.614;1.456;2023-12-20T08:33:43;2.57;;;1.50;;
15655;SDS011;7928;43.614;1.456;2023-12-20T08:36:10;1.40;;;1.30;;
15655;SDS011;7928;43.614;1.456;2023-12-20T08:38:37;3.33;;;1.83;;
15655;SDS011;7928;43.614;1.456;2023-12-20T08:41:06;1.83;;;1.40;;
15655;SDS011;7928;43.614;1.456;2023-12-20T08:43:33;3.17;;;1.60;;
15655;SDS011;7928;43.614;1.456;2023-12-20T08:46:00;3.20;;;1.73;;
15655;SDS011;7928;43.614;1.456;2023-12-20T08:48:28;2.30;;;1.60;;
15655;SDS011;7928;43.614;1.456;2023-12-20T08:50:55;2.60;;;1.97;;
15655;SDS011;7928;43.614;1.456;2023-12-20T08:53:22;5.17;;;2.27;;
15655;SDS011;7928;43.614;1.456;2023-12-20T08:55:50;2.53;;;1.70;;
15655;SDS011;7928;43.614;1.456;2023-12-20T08:58:18;2.70;;;2.00;;
15655;SDS011;7928;43.614;1.456;2023-12-20T09:00:45;2.37;;;1.90;;
15655;SDS011;7928;43.614;1.456;2023-12-20T09:03:12;3.37;;;2.37;;
15655;SDS011;7928;43.614;1.456;2023-12-20T09:05:39;4.87;;;3.57;;
15655;SDS011;7928;43.614;1.456;2023-12-20T09:08:06;3.90;;;3.37;;
15655;SDS011;7928;43.614;1.456;2023-12-20T09:10:35;10.43;;;9.43;;
15655;SDS011;7928;43.614;1.456;2023-12-20T09:13:03;13.57;;;12.27;;
15655;SDS011;7928;43.614;1.456;2023-12-20T09:15:31;11.23;;;10.23;;
15655;SDS011;7928;43.614;1.456;2023-12-20T09:17:59;6.10;;;5.47;;
15655;SDS011;7928;43.614;1.456;2023-12-20T09:20:26;9.77;;;8.63;;
15655;SDS011;7928;43.614;1.456;2023-12-20T09:22:53;9.93;;;9.00;;
15655;SDS011;7928;43.614;1.456;2023-12-20T09:25:20;9.40;;;6.70;;
15655;SDS011;7928;43.614;1.456;2023-12-20T09:27:48;8.20;;;7.27;;
15655;SDS011;7928;43.614;1.456;2023-12-20T09:30:15;7.27;;;5.57;;
15655;SDS011;7928;43.614;1.456;2023-12-20T09:32:43;4.80;;;3.67;;
15655;SDS011;7928;43.614;1.456;2023-12-20T09:35:11;10.50;;;3.30;;
15655;SDS011;7928;43.614;1.456;2023-12-20T09:37:39;2.03;;;1.63;;
15655;SDS011;7928;43.614;1.456;2023-12-20T09:40:10;4.50;;;2.40;;
15655;SDS011;7928;43.614;1.456;2023-12-20T09:42:39;2.93;;;1.67;;
15655;SDS011;7928;43.614;1.456;2023-12-20T09:45:15;4.40;;;2.10;;
15655;SDS011;7928;43.614;1.456;2023-12-20T09:47:47;4.40;;;2.40;;
15655;SDS011;7928;43.614;1.456;2023-12-20T09:50:16;2.87;;;1.70;;
15655;SDS011;7928;43.614;1.456;2023-12-20T09:52:46;2.60;;;1.60;;
15655;SDS011;7928;43.614;1.456;2023-12-20T09:55:15;3.70;;;1.43;;
15655;SDS011;7928;43.614;1.456;2023-12-20T09:57:44;2.20;;;1.00;;
15655;SDS011;7928;43.614;1.456;2023-12-20T10:00:11;2.00;;;1.17;;
15655;SDS011;7928;43.614;1.456;2023-12-20T10:02:40;3.60;;;1.30;;
15655;SDS011;7928;43.614;1.456;2023-12-20T10:05:15;3.50;;;1.60;;
15655;SDS011;7928;43.614;1.456;2023-12-20T10:07:44;2.83;;;1.20;;
15655;SDS011;7928;43.614;1.456;2023-12-20T10:10:12;4.37;;;1.40;;
15655;SDS011;7928;43.614;1.456;2023-12-20T10:12:40;13.60;;;2.17;;
15655;SDS011;7928;43.614;1.456;2023-12-20T10:15:07;6.73;;;1.30;;
15655;SDS011;7928;43.614;1.456;2023-12-20T10:17:35;7.97;;;1.63;;
15655;SDS011;7928;43.614;1.456;2023-12-20T10:20:03;3.93;;;1.70;;
15655;SDS011;7928;43.614;1.456;2023-12-20T10:22:36;2.83;;;1.30;;
15655;SDS011;7928;43.614;1.456;2023-12-20T10:25:04;3.00;;;1.40;;
15655;SDS011;7928;43.614;1.456;2023-12-20T10:27:32;4.83;;;1.30;;
15655;SDS011;7928;43.614;1.456;2023-12-20T10:29:59;3.77;;;1.10;;
15655;SDS011;7928;43.614;1.456;2023-12-20T10:32:26;3.33;;;2.07;;
15655;SDS011;7928;43.614;1.456;2023-12-20T10:34:54;3.10;;;1.13;;
15655;SDS011;7928;43.614;1.456;2023-12-20T10:37:22;2.00;;;1.30;;
15655;SDS011;7928;43.614;1.456;2023-12-20T10:39:51;1.83;;;1.30;;
15655;SDS011;7928;43.614;1.456;2023-12-20T10:42:21;4.00;;;1.20;;
15655;SDS011;7928;43.614;1.456;2023-12-20T10:44:48;2.77;;;1.03;;
15655;SDS011;7928;43.614;1.456;2023-12-20T10:47:16;2.87;;;1.10;;
15655;SDS011;7928;43.614;1.456;2023-12-20T10:49:44;2.53;;;1.23;;
15655;SDS011;7928;43.614;1.456;2023-12-20T10:52:12;3.70;;;1.10;;
15655;SDS011;7928;43.614;1.456;2023-12-20T10:54:39;3.90;;;1.20;;
15655;SDS011;7928;43.614;1.456;2023-12-20T10:57:08;2.40;;;0.90;;
15655;SDS011;7928;43.614;1.456;2023-12-20T10:59:36;2.50;;;0.83;;
15655;SDS011;7928;43.614;1.456;2023-12-20T11:02:04;2.80;;;0.97;;
15655;SDS011;7928;43.614;1.456;2023-12-20T11:04:34;3.97;;;1.23;;
15655;SDS011;7928;43.614;1.456;2023-12-20T11:07:08;4.47;;;1.30;;
15655;SDS011;7928;43.614;1.456;2023-12-20T11:09:45;2.87;;;0.90;;
15655;SDS011;7928;43.614;1.456;2023-12-20T11:12:22;2.97;;;0.93;;
15655;SDS011;7928;43.614;1.456;2023-12-20T11:14:54;4.97;;;1.07;;
15655;SDS011;7928;43.614;1.456;2023-12-20T11:17:25;2.23;;;0.93;;
15655;SDS011;7928;43.614;1.456;2023-12-20T11:20:07;4.40;;;1.10;;
15655;SDS011;7928;43.614;1.456;2023-12-20T11:22:37;2.47;;;1.03;;
15655;SDS011;7928;43.614;1.456;2023-12-20T11:25:07;1.57;;;0.70;;
15655;SDS011;7928;43.614;1.456;2023-12-20T11:27:39;2.13;;;1.30;;
15655;SDS011;7928;43.614;1.456;2023-12-20T11:30:08;7.80;;;0.90;;
15655;SDS011;7928;43.614;1.456;2023-12-20T11:32:36;2.40;;;0.70;;
15655;SDS011;7928;43.614;1.456;2023-12-20T11:35:16;3.83;;;1.20;;
15655;SDS011;7928;43.614;1.456;2023-12-20T11:37:44;2.87;;;0.90;;
15655;SDS011;7928;43.614;1.456;2023-12-20T11:40:14;2.03;;;0.77;;
15655;SDS011;7928;43.614;1.456;2023-12-20T11:42:44;2.93;;;1.10;;
15655;SDS011;7928;43.614;1.456;2023-12-20T11:45:13;4.57;;;1.00;;
15655;SDS011;7928;43.614;1.456;2023-12-20T11:47:42;2.67;;;0.90;;
15655;SDS011;7928;43.614;1.456;2023-12-20T11:50:10;3.33;;;1.00;;
15655;SDS011;7928;43.614;1.456;2023-12-20T11:52:37;2.60;;;1.10;;
15655;SDS011;7928;43.614;1.456;2023-12-20T11:55:04;3.57;;;1.23;;
15655;SDS011;7928;43.614;1.456;2023-12-20T11:57:32;1.37;;;0.90;;
15655;SDS011;7928;43.614;1.456;2023-12-20T12:00:01;2.40;;;1.07;;
15655;SDS011;7928;43.614;1.456;2023-12-20T12:02:29;4.53;;;1.37;;
15655;SDS011;7928;43.614;1.456;2023-12-20T12:04:56;7.17;;;1.13;;
15655;SDS011;7928;43.614;1.456;2023-12-20T12:07:24;2.13;;;0.70;;
15655;SDS011;7928;43.614;1.456;2023-12-20T12:09:51;3.27;;;0.77;;
15655;SDS011;7928;43.614;1.456;2023-12-20T12:12:19;2.27;;;0.90;;
15655;SDS011;7928;43.614;1.456;2023-12-20T12:14:46;2.13;;;0.90;;
15655;SDS011;7928;43.614;1.456;2023-12-20T12:17:15;6.37;;;0.83;;
15655;SDS011;7928;43.614;1.456;2023-12-20T12:19:42;6.10;;;1.03;;
15655;SDS011;7928;43.614;1.456;2023-12-20T12:22:10;2.13;;;0.63;;
15655;SDS011;7928;43.614;1.456;2023-12-20T12:24:39;3.13;;;1.00;;
15655;SDS011;7928;43.614;1.456;2023-12-20T12:27:06;5.67;;;0.90;;
15655;SDS011;7928;43.614;1.456;2023-12-20T12:29:33;4.87;;;1.10;;
15655;SDS011;7928;43.614;1.456;2023-12-20T12:32:01;4.13;;;1.10;;
15655;SDS011;7928;43.614;1.456;2023-12-20T12:34:32;3.10;;;1.00;;
15655;SDS011;7928;43.614;1.456;2023-12-20T12:37:00;3.50;;;1.30;;
15655;SDS011;7928;43.614;1.456;2023-12-20T12:39:27;4.27;;;1.20;;
15655;SDS011;7928;43.614;1.456;2023-12-20T12:41:55;2.80;;;0.90;;
15655;SDS011;7928;43.614;1.456;2023-12-20T12:44:22;4.70;;;1.13;;
15655;SDS011;7928;43.614;1.456;2023-12-20T12:46:50;3.50;;;1.30;;
15655;SDS011;7928;43.614;1.456;2023-12-20T12:49:18;4.83;;;1.33;;
15655;SDS011;7928;43.614;1.456;2023-12-20T12:51:47;4.40;;;1.37;;
15655;SDS011;7928;43.614;1.456;2023-12-20T12:54:14;3.60;;;1.20;;
15655;SDS011;7928;43.614;1.456;2023-12-20T12:56:43;33.90;;;5.57;;
15655;SDS011;7928;43.614;1.456;2023-12-20T12:59:12;6.53;;;1.60;;
15655;SDS011;7928;43.614;1.456;2023-12-20T13:01:39;4.40;;;1.30;;
15655;SDS011;7928;43.614;1.456;2023-12-20T13:04:06;2.57;;;0.90;;
15655;SDS011;7928;43.614;1.456;2023-12-20T13:06:35;4.47;;;1.20;;
15655;SDS011;7928;43.614;1.456;2023-12-20T13:09:04;3.77;;;1.43;;
15655;SDS011;7928;43.614;1.456;2023-12-20T13:11:31;5.67;;;1.43;;
15655;SDS011;7928;43.614;1.456;2023-12-20T13:14:00;4.00;;;1.13;;
15655;SDS011;7928;43.614;1.456;2023-12-20T13:16:28;3.50;;;0.90;;
15655;SDS011;7928;43.614;1.456;2023-12-20T13:18:55;5.13;;;1.27;;
15655;SDS011;7928;43.614;1.456;2023-12-20T13:21:24;3.73;;;1.10;;
15655;SDS011;7928;43.614;1.456;2023-12-20T13:23:51;3.13;;;0.97;;
15655;SDS011;7928;43.614;1.456;2023-12-20T13:26:20;4.77;;;1.10;;
15655;SDS011;7928;43.614;1.456;2023-12-20T13:28:47;2.63;;;1.00;;
15655;SDS011;7928;43.614;1.456;2023-12-20T13:31:14;3.27;;;0.90;;
15655;SDS011;7928;43.614;1.456;2023-12-20T13:33:41;4.23;;;1.30;;
15655;SDS011;7928;43.614;1.456;2023-12-20T13:36:08;7.37;;;1.63;;
15655;SDS011;7928;43.614;1.456;2023-12-20T13:38:35;3.87;;;1.27;;
15655;SDS011;7928;43.614;1.456;2023-12-20T13:41:02;6.37;;;1.20;;
15655;SDS011;7928;43.614;1.456;2023-12-20T13:43:31;5.97;;;1.23;;
15655;SDS011;7928;43.614;1.456;2023-12-20T13:45:58;5.53;;;1.00;;
15655;SDS011;7928;43.614;1.456;2023-12-20T13:48:25;3.57;;;0.90;;
15655;SDS011;7928;43.614;1.456;2023-12-20T13:50:52;4.33;;;1.17;;
15655;SDS011;7928;43.614;1.456;2023-12-20T13:53:19;4.30;;;1.60;;
15655;SDS011;7928;43.614;1.456;2023-12-20T13:55:46;3.37;;;1.27;;
15655;SDS011;7928;43.614;1.456;2023-12-20T13:58:14;6.13;;;1.63;;
15655;SDS011;7928;43.614;1.456;2023-12-20T14:00:43;7.73;;;1.50;;
15655;SDS011;7928;43.614;1.456;2023-12-20T14:03:10;5.53;;;1.37;;
15655;SDS011;7928;43.614;1.456;2023-12-20T14:05:37;3.87;;;0.90;;
15655;SDS011;7928;43.614;1.456;2023-12-20T14:08:04;5.73;;;1.40;;
15655;SDS011;7928;43.614;1.456;2023-12-20T14:10:33;3.03;;;0.90;;
15655;SDS011;7928;43.614;1.456;2023-12-20T14:13:00;5.27;;;1.30;;
15655;SDS011;7928;43.614;1.456;2023-12-20T14:15:26;6.20;;;1.50;;
15655;SDS011;7928;43.614;1.456;2023-12-20T14:17:55;4.80;;;1.53;;
15655;SDS011;7928;43.614;1.456;2023-12-20T14:20:22;7.20;;;1.60;;
15655;SDS011;7928;43.614;1.456;2023-12-20T14:22:49;6.57;;;1.47;;
15655;SDS011;7928;43.614;1.456;2023-12-20T14:25:16;6.13;;;1.23;;
15655;SDS011;7928;43.614;1.456;2023-12-20T14:27:43;9.03;;;2.00;;
15655;SDS011;7928;43.614;1.456;2023-12-20T14:30:10;4.87;;;1.63;;
15655;SDS011;7928;43.614;1.456;2023-12-20T14:32:39;8.53;;;2.50;;
15655;SDS011;7928;43.614;1.456;2023-12-20T14:35:07;9.23;;;2.40;;
15655;SDS011;7928;43.614;1.456;2023-12-20T14:37:35;5.80;;;1.60;;
15655;SDS011;7928;43.614;1.456;2023-12-20T14:40:04;4.77;;;1.37;;
15655;SDS011;7928;43.614;1.456;2023-12-20T14:42:35;9.77;;;1.40;;
15655;SDS011;7928;43.614;1.456;2023-12-20T14:45:02;3.90;;;1.10;;
15655;SDS011;7928;43.614;1.456;2023-12-20T14:47:29;7.90;;;1.47;;
15655;SDS011;7928;43.614;1.456;2023-12-20T14:49:56;4.30;;;1.30;;
15655;SDS011;7928;43.614;1.456;2023-12-20T14:52:25;3.50;;;1.20;;